createdAt,value
2023-01-04T00:01:21.451Z,75.30
2023-01-04T00:04:25.780Z,74.90
2023-01-04T00:07:30.817Z,75.10
2023-01-04T00:19:45.183Z,75.40
2023-01-04T00:35:04.236Z,75.90
2023-01-04T00:41:28.334Z,76.30
2023-01-04T00:44:36.687Z,76.30
2023-01-04T00:50:45.289Z,76.00
2023-01-04T01:06:05.593Z,76.30
2023-01-04T01:21:29.124Z,76.50
2023-01-04T01:30:42.572Z,77.30
2023-01-04T01:33:47.990Z,77.10
2023-01-04T01:36:52.505Z,77.00
2023-01-04T01:49:18.869Z,77.50
2023-01-04T01:52:29.790Z,77.50
2023-01-04T01:55:35.834Z,78.10
2023-01-04T01:58:46.861Z,77.70
2023-01-04T02:08:00.721Z,78.00
2023-01-04T02:14:28.646Z,78.40
2023-01-04T02:27:50.216Z,78.00
2023-01-04T02:31:28.876Z,79.70
2023-01-04T02:34:44.558Z,79.60
2023-01-04T02:37:59.273Z,79.50
2023-01-04T02:41:17.808Z,79.70
2023-01-04T02:44:48.926Z,80.60
2023-01-04T02:48:10.851Z,79.70
2023-01-04T02:51:32.516Z,79.70
2023-01-04T02:54:35.991Z,80.20
2023-01-04T02:57:54.242Z,80.40
2023-01-04T03:01:26.423Z,79.50
2023-01-04T03:05:11.315Z,80.10
2023-01-04T03:08:28.397Z,79.70
2023-01-04T03:11:59.688Z,80.40
2023-01-04T03:15:11.632Z,79.90
2023-01-04T03:18:24.761Z,79.90
2023-01-04T03:21:30.084Z,79.60
2023-01-04T03:24:52.693Z,80.30
2023-01-04T03:28:16.885Z,80.30
2023-01-04T03:31:47.957Z,80.20
2023-01-04T03:35:09.337Z,80.40
2023-01-04T03:38:37.719Z,79.60
2023-01-04T03:42:08.276Z,80.40
2023-01-04T03:45:37.984Z,80.40
2023-01-04T03:48:52.516Z,80.40
2023-01-04T03:52:00.511Z,81.20
2023-01-04T03:55:08.623Z,79.80
2023-01-04T04:07:58.627Z,80.70
2023-01-04T04:11:18.403Z,80.00
2023-01-04T04:26:36.274Z,80.50
2023-01-04T04:38:49.460Z,80.70
2023-01-04T04:41:53.906Z,81.10
2023-01-04T04:44:56.835Z,80.70
2023-01-04T04:54:07.725Z,80.30
2023-01-04T04:57:11.938Z,80.90
2023-01-04T05:00:16.237Z,81.10
2023-01-04T05:03:19.322Z,80.60
2023-01-04T05:06:22.231Z,80.70
2023-01-04T05:09:25.289Z,81.80
2023-01-04T05:12:47.984Z,80.70
2023-01-04T05:15:55.157Z,80.80
2023-01-04T05:18:58.187Z,80.80
2023-01-04T05:22:01.212Z,80.80
2023-01-04T05:25:04.560Z,80.60
2023-01-04T05:28:11.671Z,81.00
2023-01-04T05:31:14.801Z,79.80
2023-01-04T05:43:34.369Z,80.20
2023-01-04T05:46:49.521Z,80.70
2023-01-04T05:49:53.416Z,80.60
2023-01-04T05:52:56.736Z,81.20
2023-01-04T05:55:59.960Z,81.50
2023-01-04T05:59:04.534Z,79.90
2023-01-04T06:02:08.809Z,80.20
2023-01-04T06:05:13.137Z,80.40
2023-01-04T06:14:32.012Z,79.70
2023-01-04T06:29:50.837Z,80.00
2023-01-04T06:39:01.852Z,80.20
2023-01-04T06:45:12.746Z,80.10
2023-01-04T07:00:33.136Z,80.20
2023-01-04T07:09:43.202Z,78.80
2023-01-04T07:12:46.853Z,80.80
2023-01-04T07:15:51.338Z,80.80
2023-01-04T07:18:54.355Z,80.90
2023-01-04T07:21:58.756Z,80.80
2023-01-04T07:25:01.812Z,79.90
2023-01-04T07:28:04.827Z,80.70
2023-01-04T07:31:09.993Z,80.70
2023-01-04T07:34:13.938Z,81.50
2023-01-04T07:46:33.812Z,80.10
2023-01-04T08:01:51.995Z,80.20
2023-01-04T08:04:57.576Z,80.50
2023-01-04T08:17:15.002Z,80.60
2023-01-04T08:32:41.062Z,80.80
2023-01-04T08:42:18.842Z,80.80
2023-01-04T08:48:30.010Z,80.90
2023-01-04T08:54:36.580Z,80.90
2023-01-04T08:57:39.564Z,81.50
2023-01-04T09:22:10.892Z,81.90
2023-01-04T09:25:14.325Z,81.00
2023-01-04T09:28:17.431Z,81.70
2023-01-04T09:31:23.550Z,81.80
2023-01-04T09:34:28.951Z,80.60
2023-01-04T09:37:31.916Z,82.00
2023-01-04T09:40:54.023Z,82.20
2023-01-04T09:44:03.093Z,82.30
2023-01-04T09:47:10.676Z,81.70
2023-01-04T09:50:23.679Z,81.40
2023-01-04T09:53:33.366Z,81.20
2023-01-04T09:56:38.831Z,82.20
2023-01-04T09:59:41.855Z,82.20
2023-01-04T10:02:54.037Z,82.10
2023-01-04T10:05:58.885Z,83.50
2023-01-04T10:09:11.342Z,82.20
2023-01-04T10:15:42.523Z,81.80
2023-01-04T10:19:28.986Z,81.50
2023-01-04T10:22:33.751Z,82.60
2023-01-04T10:25:49.829Z,81.60
2023-01-04T10:29:12.627Z,82.20
2023-01-04T10:32:23.537Z,82.30
2023-01-04T10:35:29.729Z,83.00
2023-01-04T10:38:39.437Z,81.70
2023-01-04T10:41:57.077Z,82.70
2023-01-04T10:45:16.872Z,83.80
2023-01-04T10:48:28.488Z,82.90
2023-01-04T10:51:41.887Z,82.70
2023-01-04T10:54:53.714Z,82.10
2023-01-04T10:58:03.407Z,82.30
2023-01-04T11:01:14.030Z,82.00
2023-01-04T11:04:26.583Z,82.50
2023-01-04T11:07:40.967Z,82.10
2023-01-04T11:10:52.827Z,82.70
2023-01-04T11:13:55.974Z,83.10
2023-01-04T11:17:05.529Z,82.30
2023-01-04T11:20:10.057Z,82.50
2023-01-04T11:23:16.179Z,82.50
2023-01-04T11:26:31.286Z,82.60
2023-01-04T11:29:44.617Z,82.10
2023-01-04T11:32:57.151Z,82.60
2023-01-04T11:36:01.462Z,82.50
2023-01-04T11:39:07.648Z,82.20
2023-01-04T11:42:23.078Z,82.20
2023-01-04T11:45:28.519Z,83.00
2023-01-04T11:48:41.588Z,82.70
2023-01-04T11:51:45.054Z,82.70
2023-01-04T11:54:48.011Z,82.60
2023-01-04T11:58:07.951Z,82.70
2023-01-04T12:01:23.249Z,83.00
2023-01-04T12:04:32.492Z,82.90
2023-01-04T12:07:38.453Z,82.60
2023-01-04T12:10:41.497Z,82.50
2023-01-04T12:13:46.645Z,82.40
2023-01-04T12:16:58.138Z,82.60
2023-01-04T12:20:06.049Z,82.50
2023-01-04T12:23:11.970Z,81.60
2023-01-04T12:26:16.317Z,82.70
2023-01-04T12:29:57.238Z,83.10
2023-01-04T12:33:00.310Z,82.50
2023-01-04T12:36:06.436Z,82.20
2023-01-04T12:39:42.534Z,82.20
2023-01-04T12:43:25.287Z,82.50
2023-01-04T12:47:05.703Z,82.40
2023-01-04T12:50:11.842Z,82.30
2023-01-04T12:53:54.724Z,82.10
2023-01-04T12:57:25.807Z,82.20
2023-01-04T13:01:25.037Z,82.90
2023-01-04T13:04:41.037Z,82.40
2023-01-04T13:07:48.536Z,82.10
2023-01-04T13:10:55.597Z,81.90
2023-01-04T13:14:08.969Z,81.80
2023-01-04T13:17:21.320Z,81.90
2023-01-04T13:20:30.909Z,81.80
2023-01-04T13:23:34.097Z,81.70
2023-01-04T13:26:45.809Z,81.60
2023-01-04T13:29:50.710Z,81.10
2023-01-04T13:33:24.835Z,81.50
2023-01-04T13:36:18.519Z,81.40
2023-01-04T13:39:21.860Z,81.30
2023-01-04T13:42:29.534Z,81.40
2023-01-04T13:45:51.934Z,81.40
2023-01-04T13:49:02.140Z,81.40
2023-01-04T13:55:51.343Z,81.80
2023-01-04T13:58:55.324Z,81.30
2023-01-04T14:01:58.594Z,81.50
2023-01-04T14:05:01.794Z,81.40
2023-01-04T14:08:12.489Z,81.30
2023-01-04T14:11:36.089Z,81.20
2023-01-04T14:14:48.358Z,81.20
2023-01-04T14:17:53.899Z,81.70
2023-01-04T14:20:57.289Z,81.30
2023-01-04T14:24:01.654Z,80.20
2023-01-04T14:27:35.311Z,82.10
2023-01-04T14:33:47.613Z,80.40
2023-01-04T14:55:17.591Z,79.10
2023-01-04T15:07:37.949Z,80.20
2023-01-04T15:10:42.227Z,80.00
2023-01-04T15:26:06.671Z,80.20
2023-01-04T15:41:58.868Z,80.50
2023-01-04T15:51:10.625Z,80.90
2023-01-04T15:57:18.319Z,80.60
2023-01-04T16:12:42.488Z,80.70
2023-01-04T16:18:51.726Z,81.20
2023-01-04T16:28:18.245Z,80.60
2023-01-04T16:37:30.509Z,79.80
2023-01-04T16:43:46.641Z,80.30
2023-01-04T16:56:04.521Z,82.10
2023-01-04T16:59:11.844Z,80.20
2023-01-04T17:02:15.183Z,80.70
2023-01-04T17:18:22.527Z,80.60
2023-01-04T17:21:35.796Z,80.40
2023-01-04T17:24:39.024Z,80.50
2023-01-04T17:27:42.080Z,80.80
2023-01-04T17:30:46.805Z,81.20
2023-01-04T17:33:50.884Z,80.00
2023-01-04T17:36:53.975Z,81.10
2023-01-04T17:39:56.933Z,80.60
2023-01-04T17:46:08.021Z,79.70
2023-01-04T17:49:32.099Z,79.70
2023-01-04T17:58:43.275Z,82.30
2023-01-04T18:17:18.992Z,79.20
2023-01-04T18:23:30.459Z,78.90
2023-01-04T18:26:53.465Z,80.00
2023-01-04T18:29:58.055Z,79.90
2023-01-04T18:33:03.110Z,78.70
2023-01-04T18:36:08.334Z,79.80
2023-01-04T18:39:12.929Z,80.40
2023-01-04T18:42:16.276Z,79.80
2023-01-04T18:45:20.428Z,81.30
2023-01-04T18:48:24.607Z,80.30
2023-01-04T18:51:29.644Z,78.50
2023-01-04T18:54:33.275Z,79.60
2023-01-04T18:57:37.171Z,79.60
2023-01-04T19:00:40.114Z,79.70
2023-01-04T19:03:49.096Z,79.70
2023-01-04T19:06:52.028Z,79.70
2023-01-04T19:09:55.243Z,79.70
2023-01-04T19:12:58.521Z,80.70
2023-01-04T19:16:02.376Z,79.70
2023-01-04T19:19:06.821Z,79.20
2023-01-04T19:31:22.992Z,79.10
2023-01-04T19:34:28.319Z,79.80
2023-01-04T19:37:31.321Z,79.80
2023-01-04T19:40:34.350Z,81.40
2023-01-04T19:43:37.265Z,81.10
2023-01-04T19:46:41.341Z,79.60
2023-01-04T19:49:45.707Z,79.40
2023-01-04T19:52:48.825Z,80.10
2023-01-04T20:05:08.306Z,79.40
2023-01-04T20:20:26.693Z,79.00
2023-01-04T20:26:33.323Z,77.90
2023-01-04T20:29:37.668Z,80.00
2023-01-04T20:32:40.768Z,79.70
2023-01-04T20:35:45.909Z,78.90
2023-01-04T20:38:50.542Z,79.40
2023-01-04T20:42:11.071Z,79.40
2023-01-04T20:45:14.125Z,79.10
2023-01-04T20:48:17.629Z,79.40
2023-01-04T20:51:25.706Z,79.20
2023-01-04T20:54:28.665Z,79.30
2023-01-04T20:57:32.532Z,79.10
2023-01-04T21:03:41.845Z,78.70
2023-01-04T21:06:46.713Z,79.10
2023-01-04T21:09:49.631Z,78.50
2023-01-04T21:12:52.710Z,79.10
2023-01-04T21:15:56.529Z,79.10
2023-01-04T21:22:04.361Z,78.30
2023-01-04T21:25:08.445Z,78.50
2023-01-04T21:28:12.378Z,78.70
2023-01-04T21:34:23.458Z,77.80
2023-01-04T21:37:29.347Z,78.30
2023-01-04T21:40:32.799Z,78.90
2023-01-04T21:43:36.977Z,79.00
2023-01-04T21:46:40.136Z,78.90
2023-01-04T21:49:44.028Z,78.70
2023-01-04T21:52:49.565Z,79.40
2023-01-04T21:56:03.805Z,78.70
2023-01-04T21:59:07.956Z,78.50
2023-01-04T22:02:15.588Z,78.70
2023-01-04T22:05:18.799Z,78.40
2023-01-04T22:08:23.263Z,78.60
2023-01-04T22:11:27.952Z,78.60
2023-01-04T22:14:30.873Z,78.70
2023-01-04T22:17:33.900Z,78.70
2023-01-04T22:20:36.909Z,78.80
2023-01-04T22:23:41.514Z,78.60
2023-01-04T22:26:47.091Z,78.50
2023-01-04T22:29:50.050Z,78.60
2023-01-04T22:32:54.831Z,78.50
2023-01-04T22:35:58.743Z,77.60
2023-01-04T22:39:03.229Z,78.30
2023-01-04T22:42:06.399Z,78.20
2023-01-04T22:45:13.290Z,78.00
2023-01-04T22:48:16.780Z,77.90
2023-01-04T22:51:21.809Z,77.90
2023-01-04T22:54:26.198Z,78.30
2023-01-04T22:57:29.194Z,77.70
2023-01-04T23:00:32.252Z,77.80
2023-01-04T23:03:36.924Z,77.70
2023-01-04T23:06:40.075Z,77.50
2023-01-04T23:09:44.613Z,77.60
2023-01-04T23:12:48.068Z,77.50
2023-01-04T23:15:51.108Z,77.50
2023-01-04T23:18:54.135Z,77.30
2023-01-04T23:21:57.144Z,77.50
2023-01-04T23:25:01.443Z,76.80
2023-01-04T23:28:04.514Z,77.10
2023-01-04T23:31:10.879Z,77.30
2023-01-04T23:34:14.296Z,77.30
2023-01-04T23:37:17.295Z,77.40
2023-01-04T23:40:21.615Z,77.30
2023-01-04T23:43:24.569Z,77.30
2023-01-04T23:46:27.537Z,77.60
2023-01-04T23:49:33.157Z,77.50
2023-01-04T23:52:36.314Z,76.70
2023-01-04T23:55:40.579Z,76.60
2023-01-04T23:58:43.966Z,77.60
